Home > Products > Valid Products > TAF

000
FTUS45 KFGZ 290500
TAFPGA
TAF
KPGA 290522Z 2906/3006 VRB05KT P6SM VCTS SCT100CB BKN150
     FM291200 VRB05KT P6SM SCT110 SCT150=



000
FTUS45 KFGZ 290500
TAFINW
TAF
KINW 290522Z 2906/3006 VRB06KT P6SM BKN110
     FM292000 25010KT P6SM SCT120=



000
FTUS45 KFGZ 290500
TAFFLG
TAF
KFLG 290522Z 2906/3006 VRB06KT P6SM SCT120
     FM291900 23010KT P6SM VCTS BKN080CB=



000
FTUS45 KFGZ 290200 AAB
TAFPGA
TAF AMD
KPGA 290245Z 2903/2924 VRB10KT P6SM VCTS SCT090CB BKN130
     FM291000 VRB05KT P6SM BKN150
     FM292000 26010KT P6SM SCT080 BKN150 PROB30 2920/2924 5SM -TSRA
      BKN070CB=



000
FTUS45 KFGZ 290200 AAA
TAFFLG
TAF AMD
KFLG 290244Z 2903/2924 VRB06KT P6SM SCT070 BKN130
     FM291200 VRB04KT P6SM BKN150
     FM292000 24010KT P6SM SCT070 BKN150 PROB30 2920/2924 5SM -TSRA
      BKN060CB=



000
FTUS45 KFGZ 290100 AAA
TAFPGA
TAF AMD
KPGA 290158Z 2902/2924 VRB10KT P6SM VCTS SCT090CB BKN130
      TEMPO 2902/2904 VRB20G35KT 4SM TSRA BKN080CB
     FM291000 VRB05KT P6SM BKN150
     FM292000 26010KT P6SM SCT080 BKN150 PROB30 2920/2924 5SM -TSRA
      BKN070CB=



000
FTUS45 KFGZ 282300
TAFPGA
TAF
KPGA 282320Z 2900/2924 18010KT P6SM SCT090 BKN130
      TEMPO 2900/2904 VRB20G35KT 4SM TSRA BKN080CB
     FM291000 VRB05KT P6SM BKN150
     FM292000 26010KT P6SM SCT080 BKN150 PROB30 2920/2924 5SM -TSRA
      BKN070CB=



000
FTUS45 KFGZ 282300
TAFFLG
TAF
KFLG 282320Z 2900/2924 VRB06KT P6SM SCT070 BKN130
      TEMPO 2900/2904 VRB15G30KT 5SM TSRA BKN060CB OVC090
     FM291200 VRB04KT P6SM BKN150
     FM292000 24010KT P6SM SCT070 BKN150 PROB30 2920/2924 5SM -TSRA
      BKN060CB=



000
FTUS45 KFGZ 282300
TAFINW
TAF
KINW 282320Z 2900/2924 20010KT P6SM SCT090 BKN110
     FM290400 VRB06KT P6SM BKN150
     FM291000 12006KT P6SM BKN150
     FM292000 25010KT P6SM SCT100 BKN150 PROB30 2920/2924 5SM -TSRA
      BKN080CB=



000
FTUS45 KFGZ 281700
TAFFLG
TAF
KFLG 281720Z 2818/2918 VRB06KT P6SM SCT070 BKN130
      TEMPO 2821/2901 VRB15G30KT 5SM TSRA BKN060CB OVC090
     FM290100 VRB05KT P6SM BKN060 BKN090
      TEMPO 2901/2904 VRB15G25KT 5SM TSRA BKN060CB OVC090
     FM291200 VRB04KT P6SM BKN150=



000
FTUS45 KFGZ 281700
TAFPGA
TAF
KPGA 281720Z 2818/2918 VRB05KT P6SM FEW110 BKN150
     FM282200 18010KT P6SM SCT090 BKN130
      TEMPO 2823/2903 VRB20G35KT 4SM TSRA BKN080CB
     FM291000 VRB05KT P6SM BKN150=



000
FTUS45 KFGZ 281700
TAFINW
TAF
KINW 281720Z 2818/2918 12006KT P6SM SCT100 BKN150
      TEMPO 2818/2819 -SHRA BKN100
     FM282000 20010KT P6SM SCT090 BKN110
     FM290400 VRB06KT P6SM BKN150
     FM291000 12006KT P6SM BKN150=



000
FTUS45 KFGZ 281700 AAA
TAFINW
TAF AMD
KINW 281712Z 2817/2912 12006KT P6SM SCT100 BKN150
      TEMPO 2817/2819 -SHRA BKN100
     FM282000 20010KT P6SM SCT090 BKN110
     FM290400 VRB06KT P6SM BKN140=



000
FTUS45 KFGZ 281100
TAFFLG
TAF
KFLG 281124Z 2812/2912 VRB06KT P6SM SCT070 BKN130
      TEMPO 2821/2901 VRB15G30KT 5SM TSRA BKN060CB OVC090
     FM290100 VRB05KT P6SM BKN060 BKN090
      TEMPO 2901/2904 VRB15G25KT 5SM TSRA BKN060CB OVC090=



000
FTUS45 KFGZ 281100
TAFPGA
TAF
KPGA 281124Z 2812/2912 VRB05KT P6SM FEW110 BKN150
     FM282200 18010KT P6SM SCT090 BKN130
      TEMPO 2823/2903 VRB20G35KT 4SM TSRA BKN080CB=



000
FTUS45 KFGZ 281100
TAFINW
TAF
KINW 281124Z 2812/2912 12006KT P6SM SCT100 BKN150
     FM282000 20010KT P6SM SCT090 BKN110 PROB30 2821/2903 VRB20G35KT
      5SM TSRA BKN080CB
     FM290400 VRB06KT P6SM BKN140=



000
FTUS45 KFGZ 280800 AAB
TAFFLG
TAF AMD
KFLG 280831Z 2809/2906 VRB05KT P6SM SCT070 BKN100
     FM281900 22008KT P6SM SCT080 BKN110
      TEMPO 2820/2824 VRB15G30KT 4SM TSRA BKN060CB OVC090
     FM290400 VRB05KT P6SM SCT100=



000
FTUS45 KFGZ 280700 CCA
TAFFLG
TAF COR
KFLG 280727Z 2806/2906 VRB05KT P6SM VCSH SCT070 OVC100
      TEMPO 2807/2810 5SM TSRA OVC070CB
     FM281900 22008KT P6SM SCT080 BKN110
      TEMPO 2820/2824 VRB15G30KT 4SM TSRA BKN060CB OVC090
     FM290400 VRB05KT P6SM SCT100=



000
FTUS45 KFGZ 280700 AAA
TAFFLG
TAF AMD
KFLG 280726Z 2807/2906 VRB05KT P6SM SCT070 OVC100
      TEMPO 2807/2810 5SM TSRA OVC070CB
     FM281900 22008KT P6SM SCT080 BKN110
      TEMPO 2820/2824 VRB15G30KT 4SM TSRA BKN060CB OVC090
     FM290400 VRB05KT P6SM SCT100=



000
FTUS45 KFGZ 280500
TAFINW
TAF
KINW 280520Z 2806/2906 VRB05KT P6SM FEW110
     FM281000 12006KT P6SM BKN200
     FM282000 VRB15G35KT P6SM VCTS BKN100CB BKN150
     FM290400 VRB06KT P6SM FEW110=



000
FTUS45 KFGZ 280500
TAFFLG
TAF
KFLG 280520Z 2806/2906 VRB05KT P6SM SCT080 BKN100
     FM281900 22008KT P6SM VCTS SCT080CB BKN110
      TEMPO 2820/2824 VRB15G30KT 4SM TSRA BKN060CB OVC090
     FM290400 VRB05KT P6SM SCT100=



000
FTUS45 KFGZ 280500
TAFPGA
TAF
KPGA 280520Z 2806/2906 VRB05KT P6SM FEW110
     FM282200 VRB10G20KT P6SM VCTS BKN100CB
      TEMPO 2902/2906 VRB20G35KT 4SM TSRA BKN080CB=



000
FTUS45 KFGZ 280400 AAC
TAFPGA
TAF AMD
KPGA 280442Z 2805/2824 22015G30KT P6SM SCT100
     FM280500 VRB05KT P6SM FEW110
      TEMPO 2820/2824 VRB20G35KT 5SM TSRA BKN080CB=



000
FTUS45 KFGZ 280300 AAB
TAFPGA
TAF AMD
KPGA 280355Z 2804/2824 VRB06KT P6SM SCT100 BKN130
      TEMPO 2820/2824 VRB20G35KT 5SM TSRA BKN080CB=



000
FTUS45 KFGZ 280300 AAB
TAFFLG
TAF AMD
KFLG 280355Z 2804/2824 VRB05KT P6SM SCT080 BKN110
     FM282000 22008KT P6SM BKN070 BKN100
      TEMPO 2820/2824 5SM -TSRA BKN060CB=



000
FTUS45 KFGZ 280300 AAB
TAFINW
TAF AMD
KINW 280354Z 2804/2824 26012KT P6SM SCT110
     FM280500 VRB05KT P6SM FEW110
     FM281000 12006KT P6SM BKN200
     FM282000 24010KT P6SM BKN100 BKN150 PROB30 2820/2824 5SM -TSRA
      BKN080CB=



000
FTUS45 KFGZ 280100 AAA
TAFPGA
TAF AMD
KPGA 280157Z 2802/2824 VRB06KT P6SM VCTS SCT100CB BKN130
      TEMPO 2803/2806 VRB20G35KT 5SM TSRA BKN080CB=



000
FTUS45 KFGZ 280000 AAA
TAFFLG
TAF AMD
KFLG 280006Z 2800/2824 VRB03KT P6SM VCTS SCT080CB BKN110
      TEMPO 2800/2804 VRB15G30KT 5SM -TSRA BKN060CB
     FM281200 VRB03KT P6SM BKN200
     FM282000 22008KT P6SM BKN070 BKN100
      TEMPO 2820/2824 5SM -TSRA BKN060CB=



000
FTUS45 KFGZ 272300 AAA
TAFINW
TAF AMD
KINW 272359Z 2800/2824 VRB06KT P6SM SCT100 BKN150
      TEMPO 2800/2804 VRB30G45KT 5SM -TSRA BKN070CB
     FM280400 VRB05KT P6SM BKN120
     FM281000 12006KT P6SM BKN200
     FM282000 24010KT P6SM BKN100 BKN150 PROB30 2820/2824 5SM -TSRA
      BKN080CB=



000
FTUS45 KFGZ 272300
TAFPGA
TAF
KPGA 272320Z 2800/2824 VRB06KT P6SM SCT100 BKN130 PROB30 2820/2824
      5SM -TSRA BKN080CB=



000
FTUS45 KFGZ 272300
TAFINW
TAF
KINW 272320Z 2800/2824 VRB06KT P6SM SCT100 BKN150
      TEMPO 2800/2804 5SM -TSRA BKN070CB
     FM280400 VRB05KT P6SM BKN120
     FM281000 12006KT P6SM BKN200
     FM282000 24010KT P6SM BKN100 BKN150 PROB30 2820/2824 5SM -TSRA
      BKN080CB=



000
FTUS45 KFGZ 272300
TAFFLG
TAF
KFLG 272320Z 2800/2824 VRB03KT P6SM BKN070 BKN100
      TEMPO 2800/2804 5SM -TSRA BKN060CB
     FM281200 VRB03KT P6SM BKN200
     FM282000 22008KT P6SM BKN070 BKN100
      TEMPO 2820/2824 5SM -TSRA BKN060CB=



000
FTUS45 KFGZ 271700
TAFINW
TAF
KINW 271720Z 2718/2818 VRB06KT P6SM SCT100 BKN150
      TEMPO 2718/2721 21012G20KT
     FM280400 VRB05KT P6SM BKN120
     FM281000 12006KT P6SM BKN200=



000
FTUS45 KFGZ 271700
TAFFLG
TAF
KFLG 271720Z 2718/2818 VRB06KT P6SM SCT080 BKN160
      TEMPO 2718/2720 21012G20KT
     FM272000 10006KT P6SM SCT060 BKN080
      TEMPO 2720/2724 VRB15G25KT 5SM TSRA BKN060CB
     FM280000 VRB03KT P6SM BKN070 BKN100
      TEMPO 2800/2804 5SM TSRA BKN060CB
     FM281200 VRB03KT P6SM BKN200=



000
FTUS45 KFGZ 271700
TAFPGA
TAF
KPGA 271720Z 2718/2818 VRB06KT P6SM SCT100 BKN130=



000
FTUS45 KFGZ 271600 AAA
TAFFLG
TAF AMD
KFLG 271626Z 2716/2812 VRB06KT P6SM SCT080 BKN160
      TEMPO 2716/2719 21012G20KT
     FM271900 10006KT P6SM SCT060 BKN080
      TEMPO 2720/2724 VRB15G25KT 5SM TSRA BKN060CB
     FM280000 VRB03KT P6SM BKN070 BKN100
      TEMPO 2800/2804 5SM TSRA BKN060CB=



000
FTUS45 KFGZ 271200 AAA
TAFPGA
TAF AMD
KPGA 271205Z 2712/2812 19011KT P6SM SCT100 BKN120
     FM271600 VRB06KT P6SM SCT100 BKN130 PROB30 2722/2803 VRB20G35KT
      5SM TSRA BKN100CB=



000
FTUS45 KFGZ 271100
TAFINW
TAF
KINW 271120Z 2712/2812 VRB06KT P6SM SCT100 BKN150 PROB30 2721/2803
      VRB20G35KT 5SM TSRA BKN090CB
     FM280400 VRB05KT P6SM BKN120=



000
FTUS45 KFGZ 271100
TAFPGA
TAF
KPGA 271120Z 2712/2812 VRB06KT P6SM SCT100 BKN130
     FM271330 16010KT P6SM VCSH SCT090 BKN110
      TEMPO 2714/2716 VRB10G20KT -TSRA BKN080CB
     FM271600 VRB06KT P6SM SCT100 BKN130 PROB30 2722/2803 VRB20G35KT
      5SM TSRA BKN100CB=



000
FTUS45 KFGZ 271100
TAFFLG
TAF
KFLG 271120Z 2712/2812 VRB06KT P6SM SCT080 BKN160
     FM271900 10006KT P6SM SCT060 BKN080
      TEMPO 2720/2724 VRB15G25KT 5SM TSRA BKN060CB
     FM280000 VRB03KT P6SM BKN070 BKN100
      TEMPO 2800/2804 5SM TSRA BKN060CB=



000
FTUS45 KFGZ 270900 AAC
TAFINW
TAF AMD
KINW 270903Z 2709/2806 VRB06KT P6SM BKN100 BKN150
      TEMPO 2709/2711 VRB15G25KT
     FM272000 VRB06KT P6SM SCT090 BKN140 PROB30 2721/2803 VRB20G35KT
      5SM -TSRA BKN090CB
     FM280400 VRB05KT P6SM SCT120=



000
FTUS45 KFGZ 270700 AAB
TAFINW
TAF AMD
KINW 270727Z 2707/2806 VRB06KT P6SM BKN100 BKN150
     FM272000 VRB06KT P6SM SCT090 BKN140 PROB30 2721/2803 VRB20G35KT
      5SM -TSRA BKN090CB
     FM280400 VRB05KT P6SM SCT120=



000
FTUS45 KFGZ 270700 AAA
TAFPGA
TAF AMD
KPGA 270727Z 2707/2806 VRB06KT P6SM BKN250=



000
FTUS45 KFGZ 270700 AAB
TAFFLG
TAF AMD
KFLG 270727Z 2707/2806 VRB06KT P6SM VCSH BKN090
      TEMPO 2707/2709 VRB15G25KT 5SM TSRA BKN080CB
     FM271000 VRB06KT P6SM SCT080 BKN120
      TEMPO 2720/2724 VRB15G25KT 5SM -TSRA BKN080CB
     FM280400 VRB03KT P6SM SCT100=



000
FTUS45 KFGZ 270700 AAA
TAFINW
TAF AMD
KINW 270707Z 2707/2806 VRB06KT P6SM VCTS BKN100CB BKN150
     FM272000 VRB06KT P6SM SCT090 BKN140 PROB30 2721/2803 VRB20G35KT
      5SM -TSRA BKN090CB
     FM280400 VRB05KT P6SM SCT120=



000
FTUS45 KFGZ 270600 AAA
TAFFLG
TAF AMD
KFLG 270611Z 2706/2806 VRB06KT P6SM VCTS BKN090CB
      TEMPO 2706/2708 VRB15G25KT 5SM -TSRA BKN080CB
     FM270800 VRB03KT P6SM SCT100
     FM271800 VRB06KT P6SM VCTS SCT080CB BKN120
      TEMPO 2720/2724 VRB15G25KT 5SM -TSRA BKN080CB
     FM280400 VRB03KT P6SM SCT100=



000
FTUS45 KFGZ 270500
TAFPGA
TAF
KPGA 270539Z 2706/2806 VRB06KT P6SM BKN250=



000
FTUS45 KFGZ 270500
TAFFLG
TAF
KFLG 270539Z 2706/2806 VRB06KT P6SM VCTS BKN090CB
      TEMPO 2707/2709 VRB10G20KT 5SM -TSRA
     FM270900 VRB03KT P6SM SCT100
     FM271800 VRB06KT P6SM VCTS SCT080CB BKN120
      TEMPO 2720/2724 VRB15G25KT 5SM -TSRA BKN080CB
     FM280400 VRB03KT P6SM SCT100=



000
FTUS45 KFGZ 270500
TAFINW
TAF
KINW 270539Z 2706/2806 VRB20G30KT P6SM VCTS SCT100CB BKN150
     FM272000 VRB06KT P6SM SCT090 BKN140 PROB30 2721/2803 VRB20G35KT
      5SM -TSRA BKN090CB
     FM280400 VRB05KT P6SM SCT120=



000
FTUS45 KFGZ 270500 AAB
TAFINW
TAF AMD
KINW 270500Z 2705/2724 VRB15G25KT P6SM VCTS SCT100CB BKN150
      TEMPO 2704/2706 VRB20G35KT 4SM TSRA BKN100CB
     FM270600 VRB06KT P6SM FEW100 BKN150
     FM271900 VRB06KT P6SM SCT090 BKN140 PROB30 2720/2724 VRB15G25KT
      -TSRA BKN090CB=



000
FTUS45 KFGZ 270300 AAC
TAFFLG
TAF AMD
KFLG 270340Z 2704/2724 VRB05KT P6SM VCTS BKN090CB
     FM270500 VRB03KT P6SM SCT100
     FM271800 VRB06KT P6SM SCT080 BKN120
      TEMPO 2720/2724 VRB15G25KT -TSRA BKN080CB=



000
FTUS45 KFGZ 270300 AAA
TAFINW
TAF AMD
KINW 270309Z 2703/2724 VRB15G25KT P6SM VCTS SCT100CB BKN150
      TEMPO 2704/2705 VRB20G35KT 4SM TSRA BKN100CB
     FM270500 VRB06KT P6SM FEW100 BKN150
     FM271900 VRB06KT P6SM SCT090 BKN140 PROB30 2720/2724 VRB15G25KT
      -TSRA BKN090CB=



000
FTUS45 KFGZ 270200 AAB
TAFFLG
TAF AMD
KFLG 270237Z 2703/2724 VRB05KT P6SM VCTS BKN100CB
      TEMPO 2703/2704 VRB10G20KT 3SM TSRA SCT050CB OVC080
     FM270400 VRB05KT P6SM SCT100
     FM271800 VRB06KT P6SM SCT080 BKN120
      TEMPO 2720/2724 VRB15G25KT -TSRA BKN080CB=



000
FTUS45 KFGZ 270200 AAA
TAFFLG
TAF AMD
KFLG 270235Z 2703/2724 VRB05KT P6SM VCTS BKN100CB
      TEMPO 2703/2704 VRB10G20KT 5SM -TSRA OVC080CB
     FM270400 VRB05KT P6SM SCT100
     FM271800 VRB06KT P6SM SCT080 BKN120
      TEMPO 2720/2724 VRB15G25KT -TSRA BKN080CB=



000
FTUS45 KFGZ 262300
TAFINW
TAF
KINW 262338Z 2700/2724 27012KT P6SM SCT100 SCT140
      TEMPO 2701/2704 VRB15G25KT -TSRA BKN100CB
     FM270400 VRB06KT P6SM FEW100 BKN150
     FM271900 VRB06KT P6SM SCT090 BKN140 PROB30 2720/2724 VRB15G25KT
      -TSRA BKN090CB=



000
FTUS45 KFGZ 262300
TAFPGA
TAF
KPGA 262338Z 2700/2724 28009KT P6SM FEW150
     FM270300 VRB06KT P6SM BKN250=



000
FTUS45 KFGZ 262300
TAFFLG
TAF
KFLG 262338Z 2700/2724 24008KT P6SM SCT090 SCT200
     FM270300 VRB05KT P6SM SCT100 BKN200
     FM271800 VRB06KT P6SM SCT080 BKN120
      TEMPO 2720/2724 VRB15G25KT -TSRA BKN080CB=



000
FTUS45 KFGZ 262000 AAA
TAFFLG
TAF AMD
KFLG 262053Z 2621/2718 23008KT P6SM SCT070
     FM270300 VRB05KT P6SM SCT100 BKN200=



000
FTUS45 KFGZ 261700
TAFINW
TAF
KINW 261740Z 2618/2718 VRB06KT P6SM BKN140
     FM262000 31009KT P6SM SCT100 SCT140
     FM270400 VRB06KT P6SM FEW100 SCT200=



000
FTUS45 KFGZ 261700
TAFPGA
TAF
KPGA 261740Z 2618/2718 VRB06KT P6SM BKN110=



000
FTUS45 KFGZ 261700
TAFFLG
TAF
KFLG 261740Z 2618/2718 24008KT P6SM BKN080
      TEMPO 2621/2701 VRB15G25KT TSRA BKN070CB
     FM270300 VRB05KT P6SM SCT100 BKN200=



000
FTUS45 KFGZ 261100
TAFPGA
TAF
KPGA 261140Z 2612/2712 VRB06KT P6SM BKN110=



000
FTUS45 KFGZ 261100
TAFINW
TAF
KINW 261140Z 2612/2712 VRB06KT P6SM BKN140
     FM262000 31009KT P6SM SCT100 SCT140
     FM270400 VRB06KT P6SM FEW100 SCT200=



000
FTUS45 KFGZ 261100
TAFFLG
TAF
KFLG 261140Z 2612/2712 VRB06KT P6SM BKN120
     FM261800 24008KT P6SM BKN080
      TEMPO 2620/2624 VRB15G25KT TSRA BKN070CB
     FM270300 VRB05KT P6SM SCT100 BKN200=



    US Dept of Commerce
    National Oceanic and Atmospheric Administration
    National Weather Service
    1325 East West Highway
    Silver Spring, MD 20910
    Page Author: NWS Internet Services Team
Disclaimer
Information Quality
Credits
Glossary
Privacy Policy
Freedom of Information Act (FOIA)
About Us
Career Opportunities